createdAt,value
2018-08-23T00:01:31.843Z,42.36
2018-08-23T00:04:08.775Z,42.24
2018-08-23T00:06:41.233Z,41.78
2018-08-23T00:09:10.995Z,43.47
2018-08-23T00:11:47.315Z,42.32
2018-08-23T00:14:17.605Z,42.48
2018-08-23T00:16:47.995Z,42.69
2018-08-23T00:19:18.324Z,43.36
2018-08-23T00:21:49.763Z,41.77
2018-08-23T00:24:24.211Z,41.54
2018-08-23T00:26:55.045Z,41.23
2018-08-23T00:29:30.625Z,41.78
2018-08-23T00:32:01.569Z,41.66
2018-08-23T00:34:32.491Z,41.66
2018-08-23T00:37:02.607Z,41.37
2018-08-23T00:39:32.204Z,41.00
2018-08-23T00:42:04.430Z,40.59
2018-08-23T00:44:49.106Z,39.93
2018-08-23T00:47:19.339Z,40.50
2018-08-23T00:49:49.062Z,41.04
2018-08-23T00:52:20.924Z,41.57
2018-08-23T00:54:50.723Z,41.58
2018-08-23T00:57:20.271Z,42.10
2018-08-23T00:59:53.962Z,41.68
2018-08-23T01:02:23.537Z,40.92
2018-08-23T01:04:53.474Z,40.85
2018-08-23T01:07:24.754Z,40.49
2018-08-23T01:09:54.737Z,41.43
2018-08-23T01:12:24.592Z,41.89
2018-08-23T01:14:54.142Z,41.69
2018-08-23T01:17:24.028Z,41.47
2018-08-23T01:20:00.584Z,40.66
2018-08-23T01:22:30.469Z,41.37
2018-08-23T01:25:01.184Z,41.63
2018-08-23T01:27:36.139Z,41.49
2018-08-23T01:30:05.760Z,40.88
2018-08-23T01:32:35.159Z,41.17
2018-08-23T01:35:04.972Z,40.78
2018-08-23T01:37:37.744Z,41.67
2018-08-23T01:40:09.229Z,42.12
2018-08-23T01:42:40.202Z,42.23
2018-08-23T01:45:11.501Z,42.41
2018-08-23T01:47:46.170Z,42.63
2018-08-23T01:50:16.321Z,42.71
2018-08-23T01:52:48.165Z,41.31
2018-08-23T01:55:18.531Z,41.93
2018-08-23T01:57:48.412Z,41.82
2018-08-23T02:00:18.737Z,42.10
2018-08-23T02:02:48.600Z,42.44
2018-08-23T02:05:18.310Z,43.67
2018-08-23T02:07:47.893Z,43.67
2018-08-23T02:10:17.892Z,43.57
2018-08-23T02:12:50.901Z,43.69
2018-08-23T02:15:21.037Z,44.30
2018-08-23T02:17:59.574Z,44.01
2018-08-23T02:20:29.297Z,43.95
2018-08-23T02:22:58.898Z,43.23
2018-08-23T02:25:28.570Z,43.83
2018-08-23T02:28:02.581Z,44.49
2018-08-23T02:30:45.052Z,43.38
2018-08-23T02:33:15.611Z,44.11
2018-08-23T02:35:57.453Z,44.37
2018-08-23T02:38:28.943Z,44.58
2018-08-23T02:40:58.640Z,43.36
2018-08-23T02:43:28.104Z,44.31
2018-08-23T02:45:57.979Z,44.23
2018-08-23T02:48:27.518Z,43.96
2018-08-23T02:50:57.018Z,44.32
2018-08-23T02:53:47.745Z,44.32
2018-08-23T02:56:21.397Z,44.76
2018-08-23T02:58:59.123Z,44.23
2018-08-23T03:01:30.417Z,44.41
2018-08-23T03:04:10.099Z,43.53
2018-08-23T03:07:12.975Z,43.87
2018-08-23T03:09:44.334Z,43.99
2018-08-23T03:12:19.502Z,44.36
2018-08-23T03:14:49.883Z,44.92
2018-08-23T03:17:29.946Z,44.86
2018-08-23T03:20:06.822Z,45.28
2018-08-23T03:22:36.596Z,45.24
2018-08-23T03:25:08.311Z,44.71
2018-08-23T03:27:38.050Z,44.58
2018-08-23T03:30:10.189Z,44.65
2018-08-23T03:32:39.683Z,45.38
2018-08-23T03:35:09.167Z,45.63
2018-08-23T03:37:39.336Z,45.74
2018-08-23T03:40:10.137Z,44.92
2018-08-23T03:42:39.975Z,45.10
2018-08-23T03:45:15.330Z,45.46
2018-08-23T03:47:51.153Z,45.35
2018-08-23T03:50:20.878Z,45.66
2018-08-23T03:52:52.928Z,45.53
2018-08-23T03:55:23.944Z,45.76
2018-08-23T03:58:01.780Z,46.12
2018-08-23T04:00:36.468Z,45.84
2018-08-23T04:03:11.505Z,45.42
2018-08-23T04:05:41.072Z,45.09
2018-08-23T04:08:10.585Z,45.33
2018-08-23T04:10:40.284Z,45.16
2018-08-23T04:13:09.989Z,46.05
2018-08-23T04:15:39.303Z,47.00
2018-08-23T04:18:12.101Z,47.42
2018-08-23T04:20:51.378Z,48.53
2018-08-23T04:23:21.119Z,47.92
2018-08-23T04:25:50.645Z,47.67
2018-08-23T04:28:20.410Z,47.68
2018-08-23T04:30:50.453Z,48.21
2018-08-23T04:33:20.045Z,48.54
2018-08-23T04:35:49.753Z,49.05
2018-08-23T04:38:19.617Z,49.38
2018-08-23T04:40:57.711Z,49.22
2018-08-23T04:43:27.520Z,46.95
2018-08-23T04:45:57.076Z,47.28
2018-08-23T04:48:26.652Z,47.79
2018-08-23T04:50:56.333Z,48.68
2018-08-23T04:53:26.230Z,48.39
2018-08-23T04:55:55.934Z,48.95
2018-08-23T04:58:26.098Z,49.21
2018-08-23T05:00:55.765Z,49.43
2018-08-23T05:03:25.471Z,49.66
2018-08-23T05:05:55.578Z,49.96
2018-08-23T05:08:25.178Z,49.59
2018-08-23T05:10:55.119Z,50.28
2018-08-23T05:13:24.799Z,50.92
2018-08-23T05:15:54.530Z,50.68
2018-08-23T05:18:24.153Z,50.14
2018-08-23T05:20:54.386Z,50.91
2018-08-23T05:23:23.947Z,50.74
2018-08-23T05:25:57.795Z,50.21
2018-08-23T05:28:27.389Z,49.80
2018-08-23T05:30:57.022Z,50.16
2018-08-23T05:33:26.760Z,50.36
2018-08-23T05:35:56.323Z,50.75
2018-08-23T05:38:26.181Z,49.54
2018-08-23T05:41:01.645Z,49.11
2018-08-23T05:43:31.294Z,47.76
2018-08-23T05:46:01.926Z,48.49
2018-08-23T05:48:31.975Z,48.41
2018-08-23T05:51:13.573Z,48.72
2018-08-23T05:53:46.152Z,48.27
2018-08-23T05:56:15.544Z,47.72
2018-08-23T05:58:44.810Z,47.56
2018-08-23T06:01:15.096Z,46.97
2018-08-23T06:03:44.628Z,46.62
2018-08-23T06:06:14.197Z,47.98
2018-08-23T06:08:48.807Z,47.66
2018-08-23T06:11:18.602Z,46.76
2018-08-23T06:13:48.405Z,47.22
2018-08-23T06:16:18.248Z,45.58
2018-08-23T06:18:47.623Z,45.71
2018-08-23T06:21:16.886Z,46.01
2018-08-23T06:23:53.516Z,45.94
2018-08-23T06:26:34.640Z,45.45
2018-08-23T06:29:04.330Z,46.11
2018-08-23T06:31:33.805Z,45.36
2018-08-23T06:34:03.213Z,42.55
2018-08-23T06:36:37.680Z,43.54
2018-08-23T06:39:08.008Z,43.86
2018-08-23T06:41:37.638Z,44.74
2018-08-23T06:44:07.558Z,43.89
2018-08-23T06:46:37.488Z,43.76
2018-08-23T06:49:06.762Z,44.20
2018-08-23T06:51:36.652Z,42.82
2018-08-23T06:54:06.105Z,42.58
2018-08-23T06:56:37.902Z,41.16
2018-08-23T06:59:08.884Z,41.55
2018-08-23T07:01:44.153Z,41.07
2018-08-23T07:04:14.546Z,40.59
2018-08-23T07:06:44.425Z,41.89
2018-08-23T07:09:16.408Z,38.85
2018-08-23T07:11:46.220Z,37.04
2018-08-23T07:14:16.902Z,39.29
2018-08-23T07:16:48.482Z,39.02
2018-08-23T07:19:29.045Z,38.84
2018-08-23T07:22:01.316Z,37.69
2018-08-23T07:24:42.309Z,37.35
2018-08-23T07:27:15.024Z,34.90
2018-08-23T07:29:46.497Z,34.92
2018-08-23T07:32:18.080Z,36.07
2018-08-23T07:34:55.138Z,35.37
2018-08-23T07:37:24.518Z,34.29
2018-08-23T07:39:58.985Z,35.56
2018-08-23T07:42:29.937Z,34.17
2018-08-23T07:44:59.937Z,35.40
2018-08-23T07:47:31.151Z,35.29
2018-08-23T07:50:01.799Z,34.69
2018-08-23T07:52:32.981Z,33.95
2018-08-23T07:55:04.954Z,34.73
2018-08-23T07:57:35.994Z,33.44
2018-08-23T08:00:27.473Z,34.87
2018-08-23T08:02:57.010Z,33.43
2018-08-23T08:05:31.100Z,32.81
2018-08-23T08:08:01.140Z,32.09
2018-08-23T08:10:35.961Z,33.83
2018-08-23T08:13:05.965Z,33.78
2018-08-23T08:15:35.648Z,34.58
2018-08-23T08:18:12.078Z,33.13
2018-08-23T08:20:41.783Z,34.48
2018-08-23T08:23:13.425Z,33.32
2018-08-23T08:25:46.225Z,35.46
2018-08-23T08:28:18.686Z,36.75
2018-08-23T08:30:49.067Z,37.14
2018-08-23T08:33:38.576Z,37.99
2018-08-23T08:36:08.282Z,37.71
2018-08-23T08:38:38.458Z,35.48
2018-08-23T08:41:08.296Z,36.71
2018-08-23T08:43:37.932Z,36.63
2018-08-23T08:46:08.063Z,36.21
2018-08-23T08:48:37.486Z,33.20
2018-08-23T08:51:19.970Z,33.19
2018-08-23T08:53:49.556Z,33.19
2018-08-23T08:56:29.215Z,31.83
2018-08-23T08:58:58.737Z,32.12
2018-08-23T09:01:28.275Z,33.53
2018-08-23T09:03:58.411Z,34.25
2018-08-23T09:06:36.157Z,33.25
2018-08-23T09:09:27.538Z,33.12
2018-08-23T09:11:58.957Z,32.48
2018-08-23T09:14:28.828Z,33.16
2018-08-23T09:16:58.426Z,32.36
2018-08-23T09:19:39.610Z,32.63
2018-08-23T09:22:14.000Z,33.02
2018-08-23T09:24:43.471Z,33.88
2018-08-23T09:27:18.486Z,33.09
2018-08-23T09:29:48.219Z,33.32
2018-08-23T09:32:22.814Z,33.20
2018-08-23T09:34:58.391Z,32.03
2018-08-23T09:37:29.689Z,33.12
2018-08-23T09:39:59.298Z,33.48
2018-08-23T09:42:34.950Z,33.78
2018-08-23T09:45:10.009Z,33.59
2018-08-23T09:47:39.910Z,32.06
2018-08-23T09:50:09.468Z,33.24
2018-08-23T09:52:44.339Z,32.74
2018-08-23T09:55:14.890Z,32.30
2018-08-23T09:57:45.331Z,33.62
2018-08-23T10:00:19.861Z,32.89
2018-08-23T10:02:54.848Z,32.77
2018-08-23T10:06:32.246Z,32.12
2018-08-23T10:09:23.788Z,31.88
2018-08-23T10:11:58.333Z,31.94
2018-08-23T10:14:33.154Z,32.41
2018-08-23T10:18:09.666Z,32.36
2018-08-23T10:20:45.520Z,31.75
2018-08-23T10:23:15.238Z,32.19
2018-08-23T10:25:46.105Z,32.24
2018-08-23T10:28:17.191Z,32.97
2018-08-23T10:30:47.201Z,31.70
2018-08-23T10:33:19.232Z,31.71
2018-08-23T10:35:51.254Z,30.96
2018-08-23T10:38:22.326Z,31.49
2018-08-23T10:40:52.907Z,31.60
2018-08-23T10:43:28.025Z,32.13
2018-08-23T10:46:01.824Z,31.68
2018-08-23T10:48:31.583Z,30.25
2018-08-23T10:51:01.515Z,31.38
2018-08-23T10:53:30.932Z,31.23
2018-08-23T10:56:01.012Z,31.44
2018-08-23T10:58:30.790Z,30.70
2018-08-23T11:01:00.593Z,31.64
2018-08-23T11:03:30.497Z,31.44
2018-08-23T11:06:00.162Z,30.45
2018-08-23T11:08:34.382Z,30.80
2018-08-23T11:11:09.416Z,30.96
2018-08-23T11:13:44.360Z,30.37
2018-08-23T11:16:19.062Z,31.06
2018-08-23T11:18:53.955Z,29.36
2018-08-23T11:21:23.256Z,30.64
2018-08-23T11:23:52.687Z,30.48
2018-08-23T11:26:24.997Z,29.72
2018-08-23T11:28:54.488Z,30.04
2018-08-23T11:31:31.607Z,30.56
2018-08-23T11:34:01.145Z,29.37
2018-08-23T11:36:30.471Z,29.71
2018-08-23T11:39:00.219Z,30.26
2018-08-23T11:41:29.680Z,29.43
2018-08-23T11:43:59.181Z,29.41
2018-08-23T11:46:28.945Z,29.94
2018-08-23T11:48:58.604Z,28.93
2018-08-23T11:51:28.010Z,29.61
2018-08-23T11:53:58.315Z,29.70
2018-08-23T11:56:27.944Z,29.64
2018-08-23T11:58:57.446Z,29.00
2018-08-23T12:01:27.420Z,28.28
2018-08-23T12:03:56.711Z,29.33
2018-08-23T12:06:26.289Z,29.27
2018-08-23T12:08:55.823Z,29.47
2018-08-23T12:11:25.307Z,27.87
2018-08-23T12:13:54.999Z,28.62
2018-08-23T12:16:24.856Z,28.48
2018-08-23T12:18:54.284Z,28.99
2018-08-23T12:21:24.097Z,28.44
2018-08-23T12:23:54.615Z,28.48
2018-08-23T12:26:24.219Z,28.50
2018-08-23T12:29:11.948Z,27.45
2018-08-23T12:31:42.037Z,29.10
2018-08-23T12:34:12.098Z,28.76
2018-08-23T12:36:46.769Z,28.51
2018-08-23T12:39:21.486Z,29.40
2018-08-23T12:41:56.788Z,28.98
2018-08-23T12:44:26.711Z,29.55
2018-08-23T12:47:01.853Z,28.95
2018-08-23T12:49:31.507Z,28.09
2018-08-23T12:52:01.225Z,27.44
2018-08-23T12:54:31.206Z,28.46
2018-08-23T12:57:00.918Z,28.69
2018-08-23T12:59:30.894Z,27.82
2018-08-23T13:02:01.283Z,28.10
2018-08-23T13:04:30.594Z,27.79
2018-08-23T13:07:00.545Z,27.42
2018-08-23T13:09:30.544Z,27.44
2018-08-23T13:12:00.094Z,26.72
2018-08-23T13:14:29.555Z,27.45
2018-08-23T13:16:59.548Z,26.94
2018-08-23T13:19:29.142Z,26.73
2018-08-23T13:22:02.153Z,26.03
2018-08-23T13:24:32.692Z,25.58
2018-08-23T13:27:03.002Z,26.61
2018-08-23T13:29:33.160Z,26.28
2018-08-23T13:32:02.919Z,25.85
2018-08-23T13:34:32.502Z,26.62
2018-08-23T13:37:02.776Z,26.10
2018-08-23T13:39:32.301Z,26.40
2018-08-23T13:42:01.770Z,25.90
2018-08-23T13:44:33.876Z,26.69
2018-08-23T13:47:04.156Z,26.25
2018-08-23T13:49:33.532Z,26.45
2018-08-23T13:52:03.254Z,25.55
2018-08-23T13:54:33.103Z,25.38
2018-08-23T13:57:02.725Z,25.97
2018-08-23T13:59:32.330Z,25.57
2018-08-23T14:02:01.841Z,25.22
2018-08-23T14:04:31.380Z,26.12
2018-08-23T14:07:00.875Z,26.32
2018-08-23T14:09:30.233Z,25.40
2018-08-23T14:11:59.794Z,25.82
2018-08-23T14:14:30.490Z,24.79
2018-08-23T14:17:00.304Z,25.74
2018-08-23T14:19:29.911Z,25.74
2018-08-23T14:21:59.666Z,25.51
2018-08-23T14:24:29.306Z,24.94
2018-08-23T14:26:59.264Z,25.06
2018-08-23T14:29:30.002Z,26.54
2018-08-23T14:31:59.593Z,25.78
2018-08-23T14:34:28.974Z,25.65
2018-08-23T14:36:58.921Z,26.08
2018-08-23T14:39:28.623Z,25.69
2018-08-23T14:41:58.057Z,26.41
2018-08-23T14:44:28.804Z,26.42
2018-08-23T14:47:03.460Z,27.33
2018-08-23T14:49:35.825Z,26.71
2018-08-23T14:52:06.401Z,26.58
2018-08-23T14:54:41.977Z,26.52
2018-08-23T14:57:16.618Z,25.68
2018-08-23T14:59:46.640Z,26.08
2018-08-23T15:02:16.169Z,27.16
2018-08-23T15:04:46.507Z,26.67
2018-08-23T15:07:17.679Z,26.34
2018-08-23T15:09:47.367Z,27.02
2018-08-23T15:12:17.178Z,27.03
2018-08-23T15:14:47.213Z,26.54
2018-08-23T15:17:16.715Z,26.51
2018-08-23T15:19:46.119Z,25.48
2018-08-23T15:22:16.009Z,27.79
2018-08-23T15:24:45.967Z,25.37
2018-08-23T15:27:15.545Z,26.23
2018-08-23T15:29:45.370Z,26.85
2018-08-23T15:32:14.743Z,27.71
2018-08-23T15:34:44.359Z,28.46
2018-08-23T15:37:15.063Z,28.03
2018-08-23T15:39:44.728Z,27.47
2018-08-23T15:42:14.317Z,28.29
2018-08-23T15:44:44.260Z,28.36
2018-08-23T15:47:13.583Z,28.52
2018-08-23T15:49:43.304Z,28.43
2018-08-23T15:52:13.945Z,28.09
2018-08-23T15:54:43.281Z,28.57
2018-08-23T15:57:13.068Z,28.69
2018-08-23T15:59:42.934Z,28.71
2018-08-23T16:02:12.629Z,29.30
2018-08-23T16:04:42.048Z,28.27
2018-08-23T16:07:12.262Z,28.48
2018-08-23T16:09:41.963Z,28.06
2018-08-23T16:12:11.708Z,28.87
2018-08-23T16:14:41.628Z,28.90
2018-08-23T16:17:16.281Z,29.50
2018-08-23T16:19:51.591Z,29.47
2018-08-23T16:22:21.343Z,28.78
2018-08-23T16:24:50.751Z,29.57
2018-08-23T16:27:20.610Z,29.74
2018-08-23T16:29:52.588Z,30.43
2018-08-23T16:32:27.435Z,30.29
2018-08-23T16:34:56.782Z,30.79
2018-08-23T16:37:26.600Z,31.69
2018-08-23T16:39:56.430Z,31.65
2018-08-23T16:42:26.217Z,31.82
2018-08-23T16:44:55.652Z,32.45
2018-08-23T16:47:25.878Z,32.62
2018-08-23T16:49:55.750Z,32.37
2018-08-23T16:52:25.060Z,33.00
2018-08-23T16:54:54.805Z,33.07
2018-08-23T16:57:24.391Z,33.26
2018-08-23T16:59:53.785Z,33.32
2018-08-23T17:02:23.522Z,33.21
2018-08-23T17:04:53.791Z,33.90
2018-08-23T17:07:23.502Z,33.92
2018-08-23T17:09:52.982Z,34.77
2018-08-23T17:12:22.474Z,34.41
2018-08-23T17:14:51.859Z,34.45
2018-08-23T17:17:28.053Z,34.79
2018-08-23T17:19:58.095Z,35.24
2018-08-23T17:22:27.935Z,35.46
2018-08-23T17:24:58.493Z,36.12
2018-08-23T17:27:27.827Z,35.71
2018-08-23T17:29:57.294Z,35.92
2018-08-23T17:32:27.441Z,35.49
2018-08-23T17:34:57.170Z,36.58
2018-08-23T17:37:26.635Z,36.40
2018-08-23T17:39:56.258Z,36.20
2018-08-23T17:42:30.908Z,36.41
2018-08-23T17:45:01.155Z,36.77
2018-08-23T17:47:30.494Z,36.67
2018-08-23T17:50:00.195Z,37.05
2018-08-23T17:52:29.902Z,37.02
2018-08-23T17:54:59.686Z,37.55
2018-08-23T17:57:29.741Z,38.38
2018-08-23T17:59:59.697Z,37.88
2018-08-23T18:02:29.192Z,38.09
2018-08-23T18:04:58.774Z,38.39
2018-08-23T18:07:28.615Z,38.46
2018-08-23T18:09:58.277Z,39.17
2018-08-23T18:12:27.888Z,38.66
2018-08-23T18:14:57.794Z,38.94
2018-08-23T18:17:27.386Z,38.55
2018-08-23T18:19:56.921Z,39.24
2018-08-23T18:22:26.855Z,38.96
2018-08-23T18:24:56.410Z,40.33
2018-08-23T18:27:26.083Z,40.45
2018-08-23T18:29:56.135Z,40.37
2018-08-23T18:32:25.762Z,40.65
2018-08-23T18:34:55.350Z,41.27
2018-08-23T18:37:25.083Z,41.00
2018-08-23T18:39:54.837Z,41.41
2018-08-23T18:42:24.380Z,41.28
2018-08-23T18:44:54.185Z,41.38
2018-08-23T18:47:23.641Z,41.25
2018-08-23T18:49:53.062Z,41.58
2018-08-23T18:52:23.088Z,41.20
2018-08-23T18:54:53.026Z,41.72
2018-08-23T18:57:22.811Z,41.07
2018-08-23T18:59:53.098Z,41.67
2018-08-23T19:02:23.910Z,41.78
2018-08-23T19:04:54.525Z,41.95
2018-08-23T19:07:29.398Z,42.18
2018-08-23T19:09:59.352Z,42.02
2018-08-23T19:12:30.022Z,41.78
2018-08-23T19:14:59.377Z,42.05
2018-08-23T19:17:36.866Z,41.69
2018-08-23T19:20:07.265Z,41.93
2018-08-23T19:22:37.154Z,42.27
2018-08-23T19:25:08.378Z,42.35
2018-08-23T19:27:38.211Z,42.26
2018-08-23T19:30:09.005Z,42.76
2018-08-23T19:32:38.830Z,43.38
2018-08-23T19:35:08.612Z,43.69
2018-08-23T19:37:38.437Z,43.82
2018-08-23T19:40:08.567Z,44.40
2018-08-23T19:42:38.076Z,44.42
2018-08-23T19:45:07.877Z,43.82
2018-08-23T19:47:44.795Z,44.34
2018-08-23T19:50:14.249Z,44.52
2018-08-23T19:52:43.725Z,44.64
2018-08-23T19:55:13.481Z,44.88
2018-08-23T19:57:43.115Z,44.65
2018-08-23T20:00:12.922Z,44.42
2018-08-23T20:02:42.845Z,45.08
2018-08-23T20:05:12.850Z,44.67
2018-08-23T20:07:42.567Z,44.80
2018-08-23T20:10:12.989Z,44.52
2018-08-23T20:12:43.539Z,44.88
2018-08-23T20:15:13.019Z,45.18
2018-08-23T20:17:43.825Z,45.28
2018-08-23T20:20:13.501Z,45.70
2018-08-23T20:22:42.968Z,45.27
2018-08-23T20:25:12.737Z,45.49
2018-08-23T20:27:42.519Z,45.16
2018-08-23T20:30:12.025Z,45.66
2018-08-23T20:32:42.166Z,45.62
2018-08-23T20:35:11.737Z,45.91
2018-08-23T20:37:45.190Z,46.38
2018-08-23T20:40:14.641Z,46.26
2018-08-23T20:42:44.057Z,45.99
2018-08-23T20:45:14.418Z,46.22
2018-08-23T20:47:44.372Z,46.21
2018-08-23T20:50:13.945Z,46.77
2018-08-23T20:52:43.631Z,46.79
2018-08-23T20:55:13.216Z,46.96
2018-08-23T20:57:42.799Z,46.74
2018-08-23T21:00:12.254Z,47.33
2018-08-23T21:02:41.963Z,47.63
2018-08-23T21:05:11.736Z,47.46
2018-08-23T21:07:41.703Z,47.66
2018-08-23T21:27:33.059Z,47.67
2018-08-23T21:30:02.434Z,47.98
2018-08-23T21:32:32.231Z,48.11
2018-08-23T21:35:01.752Z,48.25
2018-08-23T21:37:31.565Z,49.17
2018-08-23T21:40:01.401Z,49.25
2018-08-23T21:42:30.900Z,49.67
2018-08-23T21:45:00.958Z,49.54
2018-08-23T21:47:30.861Z,49.51
2018-08-23T21:50:00.587Z,49.61
2018-08-23T21:52:30.060Z,49.58
2018-08-23T21:54:59.473Z,49.82
2018-08-23T21:57:28.909Z,49.86
2018-08-23T21:59:59.304Z,50.03
2018-08-23T22:02:28.707Z,49.89
2018-08-23T22:04:58.579Z,49.78
2018-08-23T22:07:28.507Z,49.71
2018-08-23T22:09:58.247Z,49.68
2018-08-23T22:12:27.902Z,49.60
2018-08-23T22:14:59.720Z,49.76
2018-08-23T22:34:51.324Z,50.29
2018-08-23T22:37:20.868Z,50.26
2018-08-23T22:39:50.348Z,50.40
2018-08-23T22:42:20.180Z,50.45
2018-08-23T22:44:49.972Z,50.55
2018-08-23T22:47:19.339Z,50.75
2018-08-23T22:49:48.869Z,50.67
2018-08-23T22:52:18.962Z,50.92
2018-08-23T22:54:48.670Z,50.79
2018-08-23T22:57:18.427Z,50.77
2018-08-23T22:59:48.406Z,51.02
2018-08-23T23:02:48.606Z,51.30
2018-08-23T23:05:18.853Z,50.97
2018-08-23T23:07:48.486Z,51.06
2018-08-23T23:10:18.056Z,51.06
2018-08-23T23:12:48.135Z,50.87
2018-08-23T23:15:23.090Z,51.01
2018-08-23T23:17:53.073Z,50.85
2018-08-23T23:20:22.626Z,51.09
2018-08-23T23:22:52.421Z,50.87
2018-08-23T23:25:22.188Z,50.54
2018-08-23T23:27:51.768Z,50.74
2018-08-23T23:30:21.342Z,50.71
2018-08-23T23:32:51.129Z,51.13
2018-08-23T23:35:20.841Z,50.93
2018-08-23T23:37:50.730Z,50.85
2018-08-23T23:40:23.498Z,51.00
2018-08-23T23:42:52.966Z,50.85
2018-08-23T23:45:22.850Z,51.13
2018-08-23T23:47:52.874Z,51.08
2018-08-23T23:50:22.612Z,50.69
2018-08-23T23:52:52.914Z,51.01
2018-08-23T23:55:22.848Z,50.82
2018-08-23T23:57:53.763Z,51.31
